sensor_id;sensor_type;location;lat;lon;timestamp;P1;durP1;ratioP1;P2;durP2;ratioP2
19036;SDS011;9651;49.138;8.900;2023-12-22T00:00:29;1.63;;;0.83;;
19036;SDS011;9651;49.138;8.900;2023-12-22T00:04:30;1.87;;;0.60;;
19036;SDS011;9651;49.138;8.900;2023-12-22T00:08:32;2.70;;;0.87;;
19036;SDS011;9651;49.138;8.900;2023-12-22T00:12:34;4.03;;;0.70;;
19036;SDS011;9651;49.138;8.900;2023-12-22T00:16:39;2.97;;;0.57;;
19036;SDS011;9651;49.138;8.900;2023-12-22T00:20:41;2.63;;;0.53;;
19036;SDS011;9651;49.138;8.900;2023-12-22T00:24:43;0.40;;;0.30;;
19036;SDS011;9651;49.138;8.900;2023-12-22T00:28:45;0.50;;;0.40;;
19036;SDS011;9651;49.138;8.900;2023-12-22T00:32:48;0.70;;;0.30;;
19036;SDS011;9651;49.138;8.900;2023-12-22T00:36:50;2.63;;;0.50;;
19036;SDS011;9651;49.138;8.900;2023-12-22T00:40:52;1.10;;;0.50;;
19036;SDS011;9651;49.138;8.900;2023-12-22T00:44:54;0.50;;;0.40;;
19036;SDS011;9651;49.138;8.900;2023-12-22T00:48:57;0.97;;;0.30;;
19036;SDS011;9651;49.138;8.900;2023-12-22T00:52:59;0.70;;;0.40;;
19036;SDS011;9651;49.138;8.900;2023-12-22T00:57:01;0.30;;;0.27;;
19036;SDS011;9651;49.138;8.900;2023-12-22T01:01:03;0.70;;;0.40;;
19036;SDS011;9651;49.138;8.900;2023-12-22T01:05:06;0.60;;;0.50;;
19036;SDS011;9651;49.138;8.900;2023-12-22T01:09:08;0.37;;;0.23;;
19036;SDS011;9651;49.138;8.900;2023-12-22T01:13:10;0.83;;;0.27;;
19036;SDS011;9651;49.138;8.900;2023-12-22T01:17:12;1.13;;;0.50;;
19036;SDS011;9651;49.138;8.900;2023-12-22T01:21:15;0.63;;;0.40;;
19036;SDS011;9651;49.138;8.900;2023-12-22T01:25:17;0.43;;;0.27;;
19036;SDS011;9651;49.138;8.900;2023-12-22T01:29:19;1.20;;;0.50;;
19036;SDS011;9651;49.138;8.900;2023-12-22T01:33:21;2.27;;;0.73;;
19036;SDS011;9651;49.138;8.900;2023-12-22T01:37:24;0.60;;;0.40;;
19036;SDS011;9651;49.138;8.900;2023-12-22T01:41:26;1.50;;;0.40;;
19036;SDS011;9651;49.138;8.900;2023-12-22T01:45:28;1.07;;;0.50;;
19036;SDS011;9651;49.138;8.900;2023-12-22T01:49:29;0.93;;;0.70;;
19036;SDS011;9651;49.138;8.900;2023-12-22T01:53:33;3.30;;;0.90;;
19036;SDS011;9651;49.138;8.900;2023-12-22T01:57:35;5.40;;;1.20;;
19036;SDS011;9651;49.138;8.900;2023-12-22T02:01:37;2.03;;;1.20;;
19036;SDS011;9651;49.138;8.900;2023-12-22T02:05:40;1.87;;;0.70;;
19036;SDS011;9651;49.138;8.900;2023-12-22T02:09:43;3.33;;;1.20;;
19036;SDS011;9651;49.138;8.900;2023-12-22T02:13:45;3.50;;;0.67;;
19036;SDS011;9651;49.138;8.900;2023-12-22T02:17:48;5.93;;;1.93;;
19036;SDS011;9651;49.138;8.900;2023-12-22T02:22:00;5.80;;;1.13;;
19036;SDS011;9651;49.138;8.900;2023-12-22T02:26:06;4.30;;;0.97;;
19036;SDS011;9651;49.138;8.900;2023-12-22T02:30:12;4.07;;;1.17;;
19036;SDS011;9651;49.138;8.900;2023-12-22T02:34:21;8.57;;;1.20;;
19036;SDS011;9651;49.138;8.900;2023-12-22T02:38:24;2.80;;;0.87;;
19036;SDS011;9651;49.138;8.900;2023-12-22T02:42:28;4.23;;;2.47;;
19036;SDS011;9651;49.138;8.900;2023-12-22T02:46:30;4.60;;;0.77;;
19036;SDS011;9651;49.138;8.900;2023-12-22T02:50:32;3.93;;;0.90;;
19036;SDS011;9651;49.138;8.900;2023-12-22T02:54:34;2.50;;;1.03;;
19036;SDS011;9651;49.138;8.900;2023-12-22T02:58:41;2.23;;;0.83;;
19036;SDS011;9651;49.138;8.900;2023-12-22T03:02:43;3.90;;;0.90;;
19036;SDS011;9651;49.138;8.900;2023-12-22T03:06:45;5.00;;;1.30;;
19036;SDS011;9651;49.138;8.900;2023-12-22T03:10:46;2.90;;;0.90;;
19036;SDS011;9651;49.138;8.900;2023-12-22T03:14:50;5.00;;;0.87;;
19036;SDS011;9651;49.138;8.900;2023-12-22T03:18:51;1.90;;;1.17;;
19036;SDS011;9651;49.138;8.900;2023-12-22T03:22:53;4.20;;;0.87;;
19036;SDS011;9651;49.138;8.900;2023-12-22T03:26:55;4.73;;;1.30;;
19036;SDS011;9651;49.138;8.900;2023-12-22T03:30:58;3.60;;;1.13;;
19036;SDS011;9651;49.138;8.900;2023-12-22T03:35:00;6.97;;;1.60;;
19036;SDS011;9651;49.138;8.900;2023-12-22T03:39:02;9.30;;;0.90;;
19036;SDS011;9651;49.138;8.900;2023-12-22T03:43:04;6.27;;;1.70;;
19036;SDS011;9651;49.138;8.900;2023-12-22T03:47:07;4.37;;;1.10;;
19036;SDS011;9651;49.138;8.900;2023-12-22T03:51:09;8.93;;;0.87;;
19036;SDS011;9651;49.138;8.900;2023-12-22T03:55:12;3.53;;;1.10;;
19036;SDS011;9651;49.138;8.900;2023-12-22T03:59:14;5.83;;;1.43;;
19036;SDS011;9651;49.138;8.900;2023-12-22T04:03:20;3.57;;;1.27;;
19036;SDS011;9651;49.138;8.900;2023-12-22T04:07:21;8.13;;;1.03;;
19036;SDS011;9651;49.138;8.900;2023-12-22T04:11:23;1.93;;;0.60;;
19036;SDS011;9651;49.138;8.900;2023-12-22T04:15:25;3.27;;;0.80;;
19036;SDS011;9651;49.138;8.900;2023-12-22T04:19:28;2.37;;;1.20;;
19036;SDS011;9651;49.138;8.900;2023-12-22T04:23:30;4.63;;;0.83;;
19036;SDS011;9651;49.138;8.900;2023-12-22T04:27:32;5.20;;;1.37;;
19036;SDS011;9651;49.138;8.900;2023-12-22T04:31:34;2.20;;;0.80;;
19036;SDS011;9651;49.138;8.900;2023-12-22T04:35:37;5.97;;;1.40;;
19036;SDS011;9651;49.138;8.900;2023-12-22T04:39:39;8.20;;;1.07;;
19036;SDS011;9651;49.138;8.900;2023-12-22T04:43:41;5.57;;;1.00;;
19036;SDS011;9651;49.138;8.900;2023-12-22T04:47:43;2.20;;;0.60;;
19036;SDS011;9651;49.138;8.900;2023-12-22T04:51:46;5.57;;;0.90;;
19036;SDS011;9651;49.138;8.900;2023-12-22T04:55:48;5.73;;;1.00;;
19036;SDS011;9651;49.138;8.900;2023-12-22T04:59:50;6.27;;;0.83;;
19036;SDS011;9651;49.138;8.900;2023-12-22T05:03:52;4.63;;;0.90;;
19036;SDS011;9651;49.138;8.900;2023-12-22T05:07:56;3.50;;;1.20;;
19036;SDS011;9651;49.138;8.900;2023-12-22T05:11:57;3.77;;;0.90;;
19036;SDS011;9651;49.138;8.900;2023-12-22T05:15:59;3.27;;;1.07;;
19036;SDS011;9651;49.138;8.900;2023-12-22T05:20:01;4.43;;;1.10;;
19036;SDS011;9651;49.138;8.900;2023-12-22T05:24:05;7.03;;;1.43;;
19036;SDS011;9651;49.138;8.900;2023-12-22T05:28:07;3.20;;;0.90;;
19036;SDS011;9651;49.138;8.900;2023-12-22T05:32:09;3.70;;;0.83;;
19036;SDS011;9651;49.138;8.900;2023-12-22T05:36:10;4.73;;;1.20;;
19036;SDS011;9651;49.138;8.900;2023-12-22T05:40:14;4.77;;;1.20;;
19036;SDS011;9651;49.138;8.900;2023-12-22T05:44:16;6.83;;;1.30;;
19036;SDS011;9651;49.138;8.900;2023-12-22T05:48:18;8.57;;;1.60;;
19036;SDS011;9651;49.138;8.900;2023-12-22T05:52:22;6.70;;;1.50;;
19036;SDS011;9651;49.138;8.900;2023-12-22T05:56:25;5.90;;;1.60;;
19036;SDS011;9651;49.138;8.900;2023-12-22T06:00:27;8.97;;;1.80;;
19036;SDS011;9651;49.138;8.900;2023-12-22T06:04:29;5.77;;;1.70;;
19036;SDS011;9651;49.138;8.900;2023-12-22T06:08:30;9.90;;;1.87;;
19036;SDS011;9651;49.138;8.900;2023-12-22T06:12:34;7.47;;;1.17;;
19036;SDS011;9651;49.138;8.900;2023-12-22T06:16:35;4.00;;;1.30;;
19036;SDS011;9651;49.138;8.900;2023-12-22T06:20:37;6.83;;;1.63;;
19036;SDS011;9651;49.138;8.900;2023-12-22T06:24:39;9.70;;;1.97;;
19036;SDS011;9651;49.138;8.900;2023-12-22T06:28:42;7.53;;;1.63;;
19036;SDS011;9651;49.138;8.900;2023-12-22T06:32:44;8.20;;;1.90;;
19036;SDS011;9651;49.138;8.900;2023-12-22T06:36:46;8.60;;;2.20;;
19036;SDS011;9651;49.138;8.900;2023-12-22T06:40:48;7.43;;;1.40;;
19036;SDS011;9651;49.138;8.900;2023-12-22T06:44:52;6.30;;;1.53;;
19036;SDS011;9651;49.138;8.900;2023-12-22T06:48:54;10.47;;;1.57;;
19036;SDS011;9651;49.138;8.900;2023-12-22T06:52:56;5.67;;;2.83;;
19036;SDS011;9651;49.138;8.900;2023-12-22T06:56:58;6.13;;;2.30;;
19036;SDS011;9651;49.138;8.900;2023-12-22T07:01:02;6.47;;;1.47;;
19036;SDS011;9651;49.138;8.900;2023-12-22T07:09:36;7.13;;;2.17;;
19036;SDS011;9651;49.138;8.900;2023-12-22T07:13:39;9.87;;;1.80;;
19036;SDS011;9651;49.138;8.900;2023-12-22T07:17:43;4.90;;;1.63;;
19036;SDS011;9651;49.138;8.900;2023-12-22T07:21:44;7.07;;;3.17;;
19036;SDS011;9651;49.138;8.900;2023-12-22T07:25:46;8.43;;;3.23;;
19036;SDS011;9651;49.138;8.900;2023-12-22T07:29:48;6.47;;;1.60;;
19036;SDS011;9651;49.138;8.900;2023-12-22T07:33:51;7.07;;;1.27;;
19036;SDS011;9651;49.138;8.900;2023-12-22T07:37:53;4.60;;;1.10;;
19036;SDS011;9651;49.138;8.900;2023-12-22T07:41:55;6.80;;;1.67;;
19036;SDS011;9651;49.138;8.900;2023-12-22T07:45:57;4.60;;;1.53;;
19036;SDS011;9651;49.138;8.900;2023-12-22T07:50:00;4.63;;;1.30;;
19036;SDS011;9651;49.138;8.900;2023-12-22T07:54:02;6.00;;;1.67;;
19036;SDS011;9651;49.138;8.900;2023-12-22T07:58:04;10.07;;;2.23;;
19036;SDS011;9651;49.138;8.900;2023-12-22T08:02:07;4.90;;;1.80;;
19036;SDS011;9651;49.138;8.900;2023-12-22T08:06:10;7.03;;;1.43;;
19036;SDS011;9651;49.138;8.900;2023-12-22T08:10:14;7.20;;;1.60;;
19036;SDS011;9651;49.138;8.900;2023-12-22T08:14:16;6.97;;;1.70;;
19036;SDS011;9651;49.138;8.900;2023-12-22T08:18:18;7.20;;;1.50;;
19036;SDS011;9651;49.138;8.900;2023-12-22T08:22:21;5.80;;;1.53;;
19036;SDS011;9651;49.138;8.900;2023-12-22T08:26:23;8.00;;;1.90;;
19036;SDS011;9651;49.138;8.900;2023-12-22T08:30:25;7.13;;;1.43;;
19036;SDS011;9651;49.138;8.900;2023-12-22T08:34:27;9.03;;;1.50;;
19036;SDS011;9651;49.138;8.900;2023-12-22T08:38:30;9.70;;;1.80;;
19036;SDS011;9651;49.138;8.900;2023-12-22T08:42:32;8.53;;;1.87;;
19036;SDS011;9651;49.138;8.900;2023-12-22T08:46:34;12.07;;;2.17;;
19036;SDS011;9651;49.138;8.900;2023-12-22T08:50:36;7.23;;;1.90;;
19036;SDS011;9651;49.138;8.900;2023-12-22T08:54:39;10.63;;;2.30;;
19036;SDS011;9651;49.138;8.900;2023-12-22T08:58:41;11.53;;;1.70;;
19036;SDS011;9651;49.138;8.900;2023-12-22T09:02:43;11.20;;;2.27;;
19036;SDS011;9651;49.138;8.900;2023-12-22T09:06:45;9.10;;;2.07;;
19036;SDS011;9651;49.138;8.900;2023-12-22T09:10:48;14.37;;;2.97;;
19036;SDS011;9651;49.138;8.900;2023-12-22T09:14:50;13.63;;;2.37;;
19036;SDS011;9651;49.138;8.900;2023-12-22T09:18:53;8.20;;;1.90;;
19036;SDS011;9651;49.138;8.900;2023-12-22T09:22:55;11.40;;;2.67;;
19036;SDS011;9651;49.138;8.900;2023-12-22T09:26:58;11.03;;;2.70;;
19036;SDS011;9651;49.138;8.900;2023-12-22T09:31:03;16.20;;;2.53;;
19036;SDS011;9651;49.138;8.900;2023-12-22T09:35:05;18.80;;;3.37;;
19036;SDS011;9651;49.138;8.900;2023-12-22T09:39:08;13.93;;;3.03;;
19036;SDS011;9651;49.138;8.900;2023-12-22T09:43:11;13.63;;;2.40;;
19036;SDS011;9651;49.138;8.900;2023-12-22T09:47:16;15.17;;;3.33;;
19036;SDS011;9651;49.138;8.900;2023-12-22T09:51:20;17.07;;;2.30;;
19036;SDS011;9651;49.138;8.900;2023-12-22T09:55:22;17.60;;;2.47;;
19036;SDS011;9651;49.138;8.900;2023-12-22T09:59:28;17.83;;;2.70;;
19036;SDS011;9651;49.138;8.900;2023-12-22T10:03:32;12.40;;;2.50;;
19036;SDS011;9651;49.138;8.900;2023-12-22T10:07:34;17.93;;;3.17;;
19036;SDS011;9651;49.138;8.900;2023-12-22T10:11:37;9.20;;;2.20;;
19036;SDS011;9651;49.138;8.900;2023-12-22T10:15:40;12.53;;;2.43;;
19036;SDS011;9651;49.138;8.900;2023-12-22T10:19:43;10.30;;;2.20;;
19036;SDS011;9651;49.138;8.900;2023-12-22T10:23:46;12.40;;;2.73;;
19036;SDS011;9651;49.138;8.900;2023-12-22T10:27:47;13.37;;;2.47;;
19036;SDS011;9651;49.138;8.900;2023-12-22T10:31:51;12.53;;;2.40;;
19036;SDS011;9651;49.138;8.900;2023-12-22T10:35:53;15.07;;;2.63;;
19036;SDS011;9651;49.138;8.900;2023-12-22T10:39:55;10.83;;;3.03;;
19036;SDS011;9651;49.138;8.900;2023-12-22T10:43:57;12.47;;;2.33;;
19036;SDS011;9651;49.138;8.900;2023-12-22T10:48:01;11.27;;;2.80;;
19036;SDS011;9651;49.138;8.900;2023-12-22T10:52:04;16.60;;;3.43;;
19036;SDS011;9651;49.138;8.900;2023-12-22T10:56:06;13.47;;;2.50;;
19036;SDS011;9651;49.138;8.900;2023-12-22T11:00:08;12.17;;;2.80;;
19036;SDS011;9651;49.138;8.900;2023-12-22T11:04:18;14.40;;;2.40;;
19036;SDS011;9651;49.138;8.900;2023-12-22T11:08:22;15.90;;;2.10;;
19036;SDS011;9651;49.138;8.900;2023-12-22T11:12:27;12.40;;;2.40;;
19036;SDS011;9651;49.138;8.900;2023-12-22T11:16:30;9.43;;;1.93;;
19036;SDS011;9651;49.138;8.900;2023-12-22T11:20:35;7.60;;;2.03;;
19036;SDS011;9651;49.138;8.900;2023-12-22T11:24:38;20.07;;;3.03;;
19036;SDS011;9651;49.138;8.900;2023-12-22T11:28:42;11.43;;;2.03;;
19036;SDS011;9651;49.138;8.900;2023-12-22T11:32:46;10.97;;;2.00;;
19036;SDS011;9651;49.138;8.900;2023-12-22T11:36:51;10.80;;;2.00;;
19036;SDS011;9651;49.138;8.900;2023-12-22T11:40:55;14.43;;;2.63;;
19036;SDS011;9651;49.138;8.900;2023-12-22T11:44:57;11.33;;;2.17;;
19036;SDS011;9651;49.138;8.900;2023-12-22T11:48:59;11.17;;;2.27;;
19036;SDS011;9651;49.138;8.900;2023-12-22T11:53:18;8.40;;;2.40;;
19036;SDS011;9651;49.138;8.900;2023-12-22T11:57:34;7.43;;;1.70;;
19036;SDS011;9651;49.138;8.900;2023-12-22T12:01:37;6.67;;;1.43;;
19036;SDS011;9651;49.138;8.900;2023-12-22T12:05:41;11.17;;;1.67;;
19036;SDS011;9651;49.138;8.900;2023-12-22T12:09:48;11.13;;;1.73;;
19036;SDS011;9651;49.138;8.900;2023-12-22T12:13:50;8.47;;;1.80;;
19036;SDS011;9651;49.138;8.900;2023-12-22T12:17:52;7.10;;;1.77;;
19036;SDS011;9651;49.138;8.900;2023-12-22T12:21:54;4.60;;;1.30;;
19036;SDS011;9651;49.138;8.900;2023-12-22T12:25:58;7.23;;;1.27;;
19036;SDS011;9651;49.138;8.900;2023-12-22T12:30:03;5.50;;;1.23;;
19036;SDS011;9651;49.138;8.900;2023-12-22T12:34:09;9.47;;;1.57;;
19036;SDS011;9651;49.138;8.900;2023-12-22T12:38:12;3.27;;;1.23;;
19036;SDS011;9651;49.138;8.900;2023-12-22T12:42:19;2.77;;;0.93;;
19036;SDS011;9651;49.138;8.900;2023-12-22T12:46:23;4.90;;;0.90;;
19036;SDS011;9651;49.138;8.900;2023-12-22T12:50:32;6.33;;;1.40;;
19036;SDS011;9651;49.138;8.900;2023-12-22T12:54:35;1.33;;;0.90;;
19036;SDS011;9651;49.138;8.900;2023-12-22T12:58:38;3.53;;;1.17;;
19036;SDS011;9651;49.138;8.900;2023-12-22T13:02:41;6.03;;;1.20;;
19036;SDS011;9651;49.138;8.900;2023-12-22T13:06:43;3.10;;;0.90;;
19036;SDS011;9651;49.138;8.900;2023-12-22T13:10:46;3.10;;;1.17;;
19036;SDS011;9651;49.138;8.900;2023-12-22T13:14:50;2.87;;;0.90;;
19036;SDS011;9651;49.138;8.900;2023-12-22T13:18:52;3.40;;;1.07;;
19036;SDS011;9651;49.138;8.900;2023-12-22T13:22:54;1.93;;;0.80;;
19036;SDS011;9651;49.138;8.900;2023-12-22T13:27:00;0.93;;;0.77;;
19036;SDS011;9651;49.138;8.900;2023-12-22T13:31:09;2.50;;;0.90;;
19036;SDS011;9651;49.138;8.900;2023-12-22T13:35:13;1.53;;;0.90;;
19036;SDS011;9651;49.138;8.900;2023-12-22T13:39:15;1.00;;;0.70;;
19036;SDS011;9651;49.138;8.900;2023-12-22T13:43:17;1.17;;;0.80;;
19036;SDS011;9651;49.138;8.900;2023-12-22T13:47:21;0.80;;;0.60;;
19036;SDS011;9651;49.138;8.900;2023-12-22T13:51:23;2.10;;;0.70;;
19036;SDS011;9651;49.138;8.900;2023-12-22T13:55:25;1.00;;;0.43;;
19036;SDS011;9651;49.138;8.900;2023-12-22T13:59:30;1.90;;;0.90;;
19036;SDS011;9651;49.138;8.900;2023-12-22T14:03:34;9.57;;;1.10;;
19036;SDS011;9651;49.138;8.900;2023-12-22T14:07:36;1.13;;;0.67;;
19036;SDS011;9651;49.138;8.900;2023-12-22T14:11:38;2.13;;;1.00;;
19036;SDS011;9651;49.138;8.900;2023-12-22T14:15:41;1.40;;;0.90;;
19036;SDS011;9651;49.138;8.900;2023-12-22T14:19:44;0.60;;;0.60;;
19036;SDS011;9651;49.138;8.900;2023-12-22T14:23:46;0.60;;;0.60;;
19036;SDS011;9651;49.138;8.900;2023-12-22T14:27:48;0.80;;;0.60;;
19036;SDS011;9651;49.138;8.900;2023-12-22T14:31:49;1.00;;;0.60;;
19036;SDS011;9651;49.138;8.900;2023-12-22T14:35:53;0.93;;;0.60;;
19036;SDS011;9651;49.138;8.900;2023-12-22T14:39:55;0.73;;;0.73;;
19036;SDS011;9651;49.138;8.900;2023-12-22T14:43:56;3.90;;;0.70;;
19036;SDS011;9651;49.138;8.900;2023-12-22T14:47:58;0.77;;;0.60;;
19036;SDS011;9651;49.138;8.900;2023-12-22T14:52:02;0.43;;;0.40;;
19036;SDS011;9651;49.138;8.900;2023-12-22T14:56:04;1.23;;;0.60;;
19036;SDS011;9651;49.138;8.900;2023-12-22T15:00:07;1.90;;;0.50;;
19036;SDS011;9651;49.138;8.900;2023-12-22T15:04:10;0.40;;;0.40;;
19036;SDS011;9651;49.138;8.900;2023-12-22T15:08:13;2.20;;;0.73;;
19036;SDS011;9651;49.138;8.900;2023-12-22T15:12:15;1.90;;;0.60;;
19036;SDS011;9651;49.138;8.900;2023-12-22T15:16:17;0.50;;;0.40;;
19036;SDS011;9651;49.138;8.900;2023-12-22T15:20:19;0.57;;;0.40;;
19036;SDS011;9651;49.138;8.900;2023-12-22T15:24:22;1.10;;;0.50;;
19036;SDS011;9651;49.138;8.900;2023-12-22T15:28:26;0.97;;;0.70;;
19036;SDS011;9651;49.138;8.900;2023-12-22T15:32:28;1.27;;;0.53;;
19036;SDS011;9651;49.138;8.900;2023-12-22T15:36:30;0.87;;;0.40;;
19036;SDS011;9651;49.138;8.900;2023-12-22T15:40:33;0.97;;;0.77;;
19036;SDS011;9651;49.138;8.900;2023-12-22T15:44:38;0.70;;;0.53;;
19036;SDS011;9651;49.138;8.900;2023-12-22T15:48:40;1.07;;;0.90;;
19036;SDS011;9651;49.138;8.900;2023-12-22T15:52:42;1.70;;;1.40;;
19036;SDS011;9651;49.138;8.900;2023-12-22T15:56:45;1.87;;;0.80;;
19036;SDS011;9651;49.138;8.900;2023-12-22T16:00:47;1.93;;;0.70;;
19036;SDS011;9651;49.138;8.900;2023-12-22T16:04:49;0.53;;;0.53;;
19036;SDS011;9651;49.138;8.900;2023-12-22T16:08:51;1.70;;;0.80;;
19036;SDS011;9651;49.138;8.900;2023-12-22T16:12:54;0.90;;;0.60;;
19036;SDS011;9651;49.138;8.900;2023-12-22T16:16:56;1.43;;;0.80;;
19036;SDS011;9651;49.138;8.900;2023-12-22T16:20:58;0.57;;;0.50;;
19036;SDS011;9651;49.138;8.900;2023-12-22T16:25:02;1.37;;;0.63;;
19036;SDS011;9651;49.138;8.900;2023-12-22T16:29:05;1.60;;;0.60;;
19036;SDS011;9651;49.138;8.900;2023-12-22T16:33:07;1.67;;;0.70;;
19036;SDS011;9651;49.138;8.900;2023-12-22T16:37:09;1.00;;;0.57;;
19036;SDS011;9651;49.138;8.900;2023-12-22T16:41:11;3.90;;;0.60;;
19036;SDS011;9651;49.138;8.900;2023-12-22T16:45:15;2.50;;;0.70;;
19036;SDS011;9651;49.138;8.900;2023-12-22T16:49:16;0.87;;;0.30;;
19036;SDS011;9651;49.138;8.900;2023-12-22T16:53:18;1.23;;;0.60;;
19036;SDS011;9651;49.138;8.900;2023-12-22T16:57:20;1.00;;;0.50;;
19036;SDS011;9651;49.138;8.900;2023-12-22T17:01:26;1.10;;;0.70;;
19036;SDS011;9651;49.138;8.900;2023-12-22T17:05:28;0.70;;;0.60;;
19036;SDS011;9651;49.138;8.900;2023-12-22T17:09:30;0.50;;;0.50;;
19036;SDS011;9651;49.138;8.900;2023-12-22T17:13:32;1.73;;;0.70;;
19036;SDS011;9651;49.138;8.900;2023-12-22T17:17:35;1.33;;;0.50;;
19036;SDS011;9651;49.138;8.900;2023-12-22T17:21:37;0.50;;;0.50;;
19036;SDS011;9651;49.138;8.900;2023-12-22T17:25:41;1.23;;;0.80;;
19036;SDS011;9651;49.138;8.900;2023-12-22T17:29:43;0.80;;;0.60;;
19036;SDS011;9651;49.138;8.900;2023-12-22T17:33:47;1.07;;;0.40;;
19036;SDS011;9651;49.138;8.900;2023-12-22T17:37:49;0.73;;;0.50;;
19036;SDS011;9651;49.138;8.900;2023-12-22T17:41:51;2.60;;;0.90;;
19036;SDS011;9651;49.138;8.900;2023-12-22T17:45:53;0.77;;;0.70;;
19036;SDS011;9651;49.138;8.900;2023-12-22T17:49:57;1.83;;;0.93;;
19036;SDS011;9651;49.138;8.900;2023-12-22T17:53:59;0.83;;;0.60;;
19036;SDS011;9651;49.138;8.900;2023-12-22T17:58:01;1.23;;;0.60;;
19036;SDS011;9651;49.138;8.900;2023-12-22T18:02:04;2.73;;;0.60;;
19036;SDS011;9651;49.138;8.900;2023-12-22T18:06:07;0.80;;;0.70;;
19036;SDS011;9651;49.138;8.900;2023-12-22T18:10:09;0.73;;;0.50;;
19036;SDS011;9651;49.138;8.900;2023-12-22T18:14:11;2.67;;;0.70;;
19036;SDS011;9651;49.138;8.900;2023-12-22T18:18:14;1.33;;;0.60;;
19036;SDS011;9651;49.138;8.900;2023-12-22T18:22:17;1.37;;;0.70;;
19036;SDS011;9651;49.138;8.900;2023-12-22T18:26:19;0.97;;;0.60;;
19036;SDS011;9651;49.138;8.900;2023-12-22T18:30:21;0.80;;;0.53;;
19036;SDS011;9651;49.138;8.900;2023-12-22T18:34:23;0.87;;;0.70;;
19036;SDS011;9651;49.138;8.900;2023-12-22T18:38:26;0.57;;;0.40;;
19036;SDS011;9651;49.138;8.900;2023-12-22T18:42:28;1.37;;;0.83;;
19036;SDS011;9651;49.138;8.900;2023-12-22T18:46:30;1.63;;;0.60;;
19036;SDS011;9651;49.138;8.900;2023-12-22T18:50:32;0.80;;;0.60;;
19036;SDS011;9651;49.138;8.900;2023-12-22T18:54:36;0.93;;;0.40;;
19036;SDS011;9651;49.138;8.900;2023-12-22T18:58:38;1.07;;;0.73;;
19036;SDS011;9651;49.138;8.900;2023-12-22T19:02:40;1.33;;;0.70;;
19036;SDS011;9651;49.138;8.900;2023-12-22T19:06:42;3.43;;;1.90;;
19036;SDS011;9651;49.138;8.900;2023-12-22T19:10:45;0.90;;;0.90;;
19036;SDS011;9651;49.138;8.900;2023-12-22T19:14:47;0.60;;;0.60;;
19036;SDS011;9651;49.138;8.900;2023-12-22T19:18:49;0.80;;;0.60;;
19036;SDS011;9651;49.138;8.900;2023-12-22T19:22:51;3.00;;;0.90;;
19036;SDS011;9651;49.138;8.900;2023-12-22T19:26:55;1.07;;;0.70;;
19036;SDS011;9651;49.138;8.900;2023-12-22T19:30:56;1.93;;;0.93;;
19036;SDS011;9651;49.138;8.900;2023-12-22T19:34:58;1.00;;;0.80;;
19036;SDS011;9651;49.138;8.900;2023-12-22T19:39:00;1.33;;;0.70;;
19036;SDS011;9651;49.138;8.900;2023-12-22T19:43:03;2.20;;;0.70;;
19036;SDS011;9651;49.138;8.900;2023-12-22T19:47:05;1.40;;;0.93;;
19036;SDS011;9651;49.138;8.900;2023-12-22T19:51:07;2.57;;;1.10;;
19036;SDS011;9651;49.138;8.900;2023-12-22T19:55:09;3.57;;;1.67;;
19036;SDS011;9651;49.138;8.900;2023-12-22T19:59:12;1.47;;;0.80;;
19036;SDS011;9651;49.138;8.900;2023-12-22T20:03:29;3.30;;;0.97;;
19036;SDS011;9651;49.138;8.900;2023-12-22T20:07:30;4.30;;;1.13;;
19036;SDS011;9651;49.138;8.900;2023-12-22T20:11:32;1.47;;;1.10;;
19036;SDS011;9651;49.138;8.900;2023-12-22T20:15:36;3.60;;;0.80;;
19036;SDS011;9651;49.138;8.900;2023-12-22T20:19:38;4.77;;;1.10;;
19036;SDS011;9651;49.138;8.900;2023-12-22T20:23:39;2.93;;;1.20;;
19036;SDS011;9651;49.138;8.900;2023-12-22T20:27:41;1.70;;;0.53;;
19036;SDS011;9651;49.138;8.900;2023-12-22T20:31:45;1.73;;;0.80;;
19036;SDS011;9651;49.138;8.900;2023-12-22T20:35:47;4.07;;;0.80;;
19036;SDS011;9651;49.138;8.900;2023-12-22T20:39:50;9.27;;;1.93;;
19036;SDS011;9651;49.138;8.900;2023-12-22T20:43:51;1.70;;;0.70;;
19036;SDS011;9651;49.138;8.900;2023-12-22T20:47:55;1.67;;;1.03;;
19036;SDS011;9651;49.138;8.900;2023-12-22T20:51:57;4.10;;;0.90;;
19036;SDS011;9651;49.138;8.900;2023-12-22T20:55:59;4.50;;;1.77;;
19036;SDS011;9651;49.138;8.900;2023-12-22T21:00:01;4.13;;;0.80;;
19036;SDS011;9651;49.138;8.900;2023-12-22T21:04:05;1.97;;;0.90;;
19036;SDS011;9651;49.138;8.900;2023-12-22T21:08:06;5.37;;;1.00;;
19036;SDS011;9651;49.138;8.900;2023-12-22T21:12:09;3.40;;;0.80;;
19036;SDS011;9651;49.138;8.900;2023-12-22T21:16:11;4.43;;;1.20;;
19036;SDS011;9651;49.138;8.900;2023-12-22T21:20:14;6.33;;;1.13;;
19036;SDS011;9651;49.138;8.900;2023-12-22T21:24:16;5.20;;;1.20;;
19036;SDS011;9651;49.138;8.900;2023-12-22T21:28:18;4.43;;;1.03;;
19036;SDS011;9651;49.138;8.900;2023-12-22T21:32:20;4.40;;;2.33;;
19036;SDS011;9651;49.138;8.900;2023-12-22T21:36:24;6.40;;;2.30;;
19036;SDS011;9651;49.138;8.900;2023-12-22T21:40:27;7.40;;;1.90;;
19036;SDS011;9651;49.138;8.900;2023-12-22T21:44:29;7.13;;;2.07;;
19036;SDS011;9651;49.138;8.900;2023-12-22T21:48:31;4.10;;;1.67;;
19036;SDS011;9651;49.138;8.900;2023-12-22T21:52:34;2.67;;;1.10;;
19036;SDS011;9651;49.138;8.900;2023-12-22T21:56:36;8.87;;;1.10;;
19036;SDS011;9651;49.138;8.900;2023-12-22T22:00:38;4.27;;;1.20;;
19036;SDS011;9651;49.138;8.900;2023-12-22T22:04:40;3.23;;;0.90;;
19036;SDS011;9651;49.138;8.900;2023-12-22T22:08:43;4.17;;;1.03;;
19036;SDS011;9651;49.138;8.900;2023-12-22T22:12:45;4.30;;;1.10;;
19036;SDS011;9651;49.138;8.900;2023-12-22T22:16:47;2.27;;;1.27;;
19036;SDS011;9651;49.138;8.900;2023-12-22T22:20:49;3.73;;;0.97;;
19036;SDS011;9651;49.138;8.900;2023-12-22T22:24:52;2.47;;;0.93;;
19036;SDS011;9651;49.138;8.900;2023-12-22T22:28:54;4.27;;;1.53;;
19036;SDS011;9651;49.138;8.900;2023-12-22T22:32:56;3.77;;;1.33;;
19036;SDS011;9651;49.138;8.900;2023-12-22T22:36:58;2.90;;;1.17;;
19036;SDS011;9651;49.138;8.900;2023-12-22T22:41:01;3.53;;;1.23;;
19036;SDS011;9651;49.138;8.900;2023-12-22T22:45:04;3.63;;;0.93;;
19036;SDS011;9651;49.138;8.900;2023-12-22T22:49:06;9.30;;;1.50;;
19036;SDS011;9651;49.138;8.900;2023-12-22T22:53:12;6.63;;;2.23;;
19036;SDS011;9651;49.138;8.900;2023-12-22T22:57:15;4.90;;;1.83;;
19036;SDS011;9651;49.138;8.900;2023-12-22T23:01:17;3.73;;;0.93;;
19036;SDS011;9651;49.138;8.900;2023-12-22T23:05:19;6.33;;;1.20;;
19036;SDS011;9651;49.138;8.900;2023-12-22T23:09:21;5.13;;;1.20;;
19036;SDS011;9651;49.138;8.900;2023-12-22T23:13:24;5.17;;;1.20;;
19036;SDS011;9651;49.138;8.900;2023-12-22T23:17:26;3.53;;;1.23;;
19036;SDS011;9651;49.138;8.900;2023-12-22T23:21:30;5.33;;;1.00;;
19036;SDS011;9651;49.138;8.900;2023-12-22T23:25:32;7.00;;;1.80;;
19036;SDS011;9651;49.138;8.900;2023-12-22T23:29:35;6.07;;;1.10;;
19036;SDS011;9651;49.138;8.900;2023-12-22T23:33:37;5.80;;;1.20;;
19036;SDS011;9651;49.138;8.900;2023-12-22T23:37:39;4.17;;;1.30;;
19036;SDS011;9651;49.138;8.900;2023-12-22T23:41:41;5.00;;;1.10;;
19036;SDS011;9651;49.138;8.900;2023-12-22T23:45:44;6.97;;;1.63;;
19036;SDS011;9651;49.138;8.900;2023-12-22T23:49:46;6.50;;;1.10;;
19036;SDS011;9651;49.138;8.900;2023-12-22T23:53:48;7.53;;;2.00;;
19036;SDS011;9651;49.138;8.900;2023-12-22T23:57:50;5.10;;;1.20;;
